Time;durP1;ratioP1;P1;durP2;ratioP2;P2;SDS_P1;SDS_P2;PMS_P1;PMS_P2;Temp;Humidity;BMP_temperature;BMP_pressure;BME280_temperature;BME280_humidity;BME280_pressure;Samples;Min_cycle;Max_cycle;Signal;HPM_P1;HPM_P2
2022/09/21 00:01:54;;;;;;;;;;;7.80;99.90;;;;;;5072311;28;19928;-69
2022/09/21 00:04:21;;;;;;;;;;;7.80;99.90;;;;;;5071030;28;20054;-70
2022/09/21 00:06:48;;;;;;;;;;;7.80;99.90;;;;;;5087409;28;19925;-69
2022/09/21 00:09:15;;;;;;;;;;;7.80;99.90;;;;;;5071377;28;19929;-69
2022/09/21 00:11:42;;;;;;;;;;;7.70;99.90;;;;;;5070552;28;19924;-69
2022/09/21 00:14:11;;;;;;;;;;;7.60;99.90;;;;;;5074336;28;19928;-69
2022/09/21 00:16:39;;;;;;;;;;;7.60;99.90;;;;;;5081258;28;19925;-69
2022/09/21 00:19:06;;;;;;;;;;;7.60;99.90;;;;;;5071471;28;19932;-70
2022/09/21 00:21:33;;;;;;;;;;;7.50;99.90;;;;;;5079984;28;19924;-70
2022/09/21 00:24:01;;;;;;;;;;;7.50;99.90;;;;;;5079394;28;19924;-70
2022/09/21 00:26:28;;;;;;;;;;;7.50;99.90;;;;;;5070603;28;20015;-70
2022/09/21 00:28:56;;;;;;;;;;;7.50;99.90;;;;;;5079296;28;19925;-70
2022/09/21 00:31:23;;;;;;;;;;;7.50;99.90;;;;;;5071481;28;19928;-70
2022/09/21 00:33:52;;;;;;;;;;;7.50;99.90;;;;;;5073436;28;19924;-70
2022/09/21 00:36:20;;;;;;;;;;;7.40;99.90;;;;;;5071632;28;19932;-70
2022/09/21 00:38:49;;;;;;;;;;;7.40;99.90;;;;;;5070775;28;19932;-70
2022/09/21 00:41:16;;;;;;;;;;;7.40;99.90;;;;;;5070896;28;19929;-67
2022/09/21 00:43:46;;;;;;;;;;;7.40;99.90;;;;;;5071145;28;20011;-70
2022/09/21 00:46:14;;;;;;;;;;;7.40;99.90;;;;;;5071304;28;20062;-70
2022/09/21 00:48:41;;;;;;;;;;;7.30;99.90;;;;;;5071059;28;19924;-70
2022/09/21 00:51:10;;;;;;;;;;;7.30;99.90;;;;;;5079646;28;19925;-71
2022/09/21 00:53:37;;;;;;;;;;;7.30;99.90;;;;;;5070252;28;19925;-70
2022/09/21 00:56:05;;;;;;;;;;;7.20;99.90;;;;;;5070977;28;19928;-70
2022/09/21 00:58:34;;;;;;;;;;;7.20;99.90;;;;;;5076356;28;19925;-70
2022/09/21 01:01:00;;;;;;;;;;;7.20;99.90;;;;;;5064007;28;19935;-71
2022/09/21 01:03:29;;;;;;;;;;;7.10;99.90;;;;;;5070716;28;20390;-69
2022/09/21 01:05:56;;;;;;;;;;;7.10;99.90;;;;;;5070935;28;19958;-70
2022/09/21 01:08:25;;;;;;;;;;;7.10;99.90;;;;;;5070224;28;19924;-72
2022/09/21 01:11:02;;;;;;;;;;;7.10;99.90;;;;;;5070844;28;19975;-70
2022/09/21 01:13:33;;;;;;;;;;;7.10;99.90;;;;;;5075106;28;20007;-71
2022/09/21 01:16:02;;;;;;;;;;;7.10;99.90;;;;;;5070642;28;19924;-71
2022/09/21 01:18:32;;;;;;;;;;;7.10;99.90;;;;;;5069943;28;19928;-71
2022/09/21 01:21:04;;;;;;;;;;;7.20;99.90;;;;;;5070276;28;19928;-71
2022/09/21 01:23:38;;;;;;;;;;;7.20;99.90;;;;;;5069734;28;19931;-67
2022/09/21 01:26:10;;;;;;;;;;;7.10;99.90;;;;;;5070313;28;19924;-70
2022/09/21 01:28:49;;;;;;;;;;;7.10;99.90;;;;;;5070019;28;19928;-71
2022/09/21 01:31:19;;;;;;;;;;;7.00;99.90;;;;;;5079041;28;19935;-67
2022/09/21 01:33:48;;;;;;;;;;;7.00;99.90;;;;;;5070119;28;19928;-72
2022/09/21 01:36:17;;;;;;;;;;;7.00;99.90;;;;;;5070346;28;19924;-70
2022/09/21 01:38:45;;;;;;;;;;;7.00;99.90;;;;;;5070200;28;19924;-71
2022/09/21 01:41:13;;;;;;;;;;;6.90;99.90;;;;;;5076001;28;19925;-70
2022/09/21 01:43:42;;;;;;;;;;;6.90;99.90;;;;;;5068673;28;19931;-69
2022/09/21 01:46:13;;;;;;;;;;;6.90;99.90;;;;;;5075707;28;19928;-71
2022/09/21 01:48:41;;;;;;;;;;;6.90;99.90;;;;;;5064671;28;19994;-70
2022/09/21 01:51:10;;;;;;;;;;;6.80;99.90;;;;;;5082545;28;19925;-71
2022/09/21 01:53:39;;;;;;;;;;;6.80;99.90;;;;;;5070016;28;19936;-70
2022/09/21 01:56:07;;;;;;;;;;;6.80;99.90;;;;;;5070089;28;19925;-71
2022/09/21 01:58:36;;;;;;;;;;;6.80;99.90;;;;;;5069750;28;19928;-70
2022/09/21 02:01:04;;;;;;;;;;;6.80;99.90;;;;;;5069555;28;19925;-70
2022/09/21 02:03:36;;;;;;;;;;;6.90;99.90;;;;;;5068793;28;19925;-70
2022/09/21 02:06:04;;;;;;;;;;;6.90;99.90;;;;;;5069858;28;19931;-70
2022/09/21 02:08:32;;;;;;;;;;;6.80;99.90;;;;;;5076622;28;19928;-70
2022/09/21 02:10:59;;;;;;;;;;;6.80;99.90;;;;;;5072437;28;20042;-68
2022/09/21 02:13:28;;;;;;;;;;;6.80;99.90;;;;;;5074805;28;19924;-71
2022/09/21 02:16:00;;;;;;;;;;;6.80;99.90;;;;;;5069533;28;19928;-70
2022/09/21 02:18:38;;;;;;;;;;;6.80;99.90;;;;;;5066167;28;19929;-70
2022/09/21 02:21:10;;;;;;;;;;;6.80;99.90;;;;;;5083290;28;20012;-70
2022/09/21 02:23:42;;;;;;;;;;;6.70;99.90;;;;;;5067677;28;19964;-71
2022/09/21 02:26:12;;;;;;;;;;;6.70;99.90;;;;;;5069976;28;19925;-71
2022/09/21 02:28:43;;;;;;;;;;;6.60;99.90;;;;;;5073521;28;20367;-70
2022/09/21 02:31:12;;;;;;;;;;;6.60;99.90;;;;;;5069200;28;19984;-71
2022/09/21 02:33:44;;;;;;;;;;;6.60;99.90;;;;;;5069525;28;19924;-71
2022/09/21 02:36:15;;;;;;;;;;;6.50;99.90;;;;;;5077942;28;19924;-70
2022/09/21 02:38:45;;;;;;;;;;;6.50;99.90;;;;;;5068394;28;19924;-71
2022/09/21 02:41:16;;;;;;;;;;;6.50;99.90;;;;;;5074357;28;20474;-70
2022/09/21 02:43:45;;;;;;;;;;;6.50;99.90;;;;;;5068545;28;19925;-70
2022/09/21 02:46:15;;;;;;;;;;;6.50;99.90;;;;;;5076643;28;19959;-72
2022/09/21 02:48:44;;;;;;;;;;;6.40;99.90;;;;;;5077746;28;19928;-69
2022/09/21 02:51:12;;;;;;;;;;;6.50;99.90;;;;;;5069191;28;19928;-71
2022/09/21 02:53:42;;;;;;;;;;;6.40;99.90;;;;;;5069443;28;20315;-70
2022/09/21 02:56:10;;;;;;;;;;;6.40;99.90;;;;;;5069349;28;19930;-68
2022/09/21 02:58:39;;;;;;;;;;;6.40;99.90;;;;;;5069092;28;19931;-70
2022/09/21 03:01:07;;;;;;;;;;;6.40;99.90;;;;;;5069163;28;19932;-70
2022/09/21 03:03:34;;;;;;;;;;;6.40;99.90;;;;;;5071712;28;19929;-70
2022/09/21 03:06:01;;;;;;;;;;;6.30;99.90;;;;;;5073920;28;19931;-71
2022/09/21 03:08:29;;;;;;;;;;;6.30;99.90;;;;;;5081612;28;19925;-69
2022/09/21 03:10:57;;;;;;;;;;;6.30;99.90;;;;;;5073555;28;20010;-69
2022/09/21 03:13:24;;;;;;;;;;;6.30;99.90;;;;;;5069363;28;19932;-69
2022/09/21 03:15:58;;;;;;;;;;;6.30;99.90;;;;;;5073163;28;19924;-69
2022/09/21 03:18:25;;;;;;;;;;;6.30;99.90;;;;;;5069505;28;19924;-68
2022/09/21 03:20:52;;;;;;;;;;;6.30;99.90;;;;;;5073094;28;19947;-69
2022/09/21 03:23:19;;;;;;;;;;;6.20;99.90;;;;;;5073216;28;19950;-69
2022/09/21 03:25:46;;;;;;;;;;;6.20;99.90;;;;;;5077725;28;19924;-69
2022/09/21 03:28:14;;;;;;;;;;;6.20;99.90;;;;;;5072393;28;19924;-70
2022/09/21 03:30:42;;;;;;;;;;;6.20;99.90;;;;;;5080059;28;20272;-69
2022/09/21 03:33:09;;;;;;;;;;;6.30;99.90;;;;;;5088174;28;19924;-72
2022/09/21 03:35:35;;;;;;;;;;;6.20;99.90;;;;;;5072990;28;19960;-69
2022/09/21 03:38:02;;;;;;;;;;;6.20;99.90;;;;;;5071451;28;20287;-69
2022/09/21 03:40:30;;;;;;;;;;;6.20;99.90;;;;;;5072461;28;19933;-70
2022/09/21 03:42:56;;;;;;;;;;;6.10;99.90;;;;;;5080318;28;19924;-67
2022/09/21 03:45:26;;;;;;;;;;;6.10;99.90;;;;;;5065943;28;19925;-68
2022/09/21 03:47:54;;;;;;;;;;;6.10;99.90;;;;;;5066481;28;20330;-68
2022/09/21 03:50:21;;;;;;;;;;;6.10;99.90;;;;;;5065933;28;19928;-70
2022/09/21 03:52:48;;;;;;;;;;;6.00;99.90;;;;;;5068522;28;19932;-68
2022/09/21 03:55:15;;;;;;;;;;;6.00;99.90;;;;;;5072310;28;19999;-68
2022/09/21 03:57:41;;;;;;;;;;;6.00;99.90;;;;;;5071407;28;19928;-69
2022/09/21 04:00:09;;;;;;;;;;;6.00;99.90;;;;;;5070402;28;19963;-68
2022/09/21 04:02:38;;;;;;;;;;;6.00;99.90;;;;;;5071924;28;19947;-68
2022/09/21 04:05:06;;;;;;;;;;;5.90;99.90;;;;;;5071953;28;19924;-68
2022/09/21 04:07:33;;;;;;;;;;;5.90;99.90;;;;;;5070972;28;19924;-68
2022/09/21 04:10:00;;;;;;;;;;;5.90;99.90;;;;;;5079626;28;20387;-69
2022/09/21 04:12:27;;;;;;;;;;;5.90;99.90;;;;;;5079941;28;20306;-69
2022/09/21 04:14:54;;;;;;;;;;;5.90;99.90;;;;;;5085516;28;19929;-68
2022/09/21 04:17:20;;;;;;;;;;;5.90;99.90;;;;;;5069921;28;19924;-69
2022/09/21 04:19:49;;;;;;;;;;;5.90;99.90;;;;;;5071575;28;19934;-68
2022/09/21 04:22:15;;;;;;;;;;;5.90;99.90;;;;;;5071623;28;19924;-68
2022/09/21 04:24:42;;;;;;;;;;;5.80;99.90;;;;;;5071716;28;19924;-68
2022/09/21 04:27:09;;;;;;;;;;;5.80;99.90;;;;;;5070242;28;19928;-69
2022/09/21 04:29:36;;;;;;;;;;;5.80;99.90;;;;;;5065746;28;20414;-68
2022/09/21 04:32:03;;;;;;;;;;;5.80;99.90;;;;;;5071445;28;19928;-68
2022/09/21 04:34:31;;;;;;;;;;;5.70;99.90;;;;;;5070272;28;19924;-68
2022/09/21 04:36:59;;;;;;;;;;;5.70;99.90;;;;;;5080723;28;19925;-68
2022/09/21 04:39:26;;;;;;;;;;;5.70;99.90;;;;;;5071202;28;19970;-68
2022/09/21 04:41:53;;;;;;;;;;;5.70;99.90;;;;;;5066480;28;19925;-67
2022/09/21 04:44:19;;;;;;;;;;;5.70;99.90;;;;;;5071291;28;19928;-67
2022/09/21 04:46:46;;;;;;;;;;;5.70;99.90;;;;;;5062178;28;19924;-68
2022/09/21 04:49:13;;;;;;;;;;;5.70;99.90;;;;;;5081990;28;20360;-68
2022/09/21 04:51:40;;;;;;;;;;;5.70;99.90;;;;;;5063508;28;19928;-68
2022/09/21 04:54:08;;;;;;;;;;;5.70;99.90;;;;;;5081832;28;19932;-69
2022/09/21 04:56:35;;;;;;;;;;;5.70;99.90;;;;;;5071310;28;19924;-71
2022/09/21 04:59:02;;;;;;;;;;;5.70;99.90;;;;;;5063305;28;20354;-71
2022/09/21 05:01:28;;;;;;;;;;;5.70;99.90;;;;;;5083380;28;20409;-67
2022/09/21 05:03:57;;;;;;;;;;;5.70;99.90;;;;;;5066511;28;19924;-70
2022/09/21 05:06:24;;;;;;;;;;;5.70;99.90;;;;;;5064114;28;19931;-69
2022/09/21 05:11:37;;;;;;;;;;;5.70;99.90;;;;;;5068369;28;19935;-70
2022/09/21 05:14:04;;;;;;;;;;;5.60;99.90;;;;;;5080556;28;20383;-70
2022/09/21 05:16:31;;;;;;;;;;;5.60;99.90;;;;;;5070528;28;19931;-70
2022/09/21 05:18:58;;;;;;;;;;;5.60;99.90;;;;;;5086712;28;19935;-70
2022/09/21 05:21:25;;;;;;;;;;;5.60;99.90;;;;;;5066829;28;19928;-69
2022/09/21 05:23:51;;;;;;;;;;;5.60;99.90;;;;;;5066439;28;19932;-69
2022/09/21 05:26:18;;;;;;;;;;;5.60;99.90;;;;;;5063138;28;19924;-70
2022/09/21 05:28:47;;;;;;;;;;;5.60;99.90;;;;;;5065725;28;19924;-68
2022/09/21 05:31:22;;;;;;;;;;;5.60;99.90;;;;;;5086120;28;19924;-68
2022/09/21 05:33:51;;;;;;;;;;;5.70;99.90;;;;;;5070458;28;20458;-68
2022/09/21 05:36:26;;;;;;;;;;;5.70;99.90;;;;;;5075220;28;20403;-69
2022/09/21 05:38:53;;;;;;;;;;;5.80;99.90;;;;;;5065206;28;19931;-69
2022/09/21 05:41:21;;;;;;;;;;;5.90;99.90;;;;;;5073222;28;19974;-68
2022/09/21 05:43:49;;;;;;;;;;;5.90;99.90;;;;;;5070201;28;19975;-68
2022/09/21 05:46:19;;;;;;;;;;;5.90;99.90;;;;;;5076796;28;19946;-69
2022/09/21 05:48:49;;;;;;;;;;;5.90;99.90;;;;;;5081577;28;19948;-69
2022/09/21 05:51:21;;;;;;;;;;;6.00;99.90;;;;;;5066421;28;19925;-69
2022/09/21 05:53:55;;;;;;;;;;;6.10;99.90;;;;;;5077115;28;19928;-69
2022/09/21 05:56:28;;;;;;;;;;;6.10;99.90;;;;;;5068139;28;19928;-69
2022/09/21 05:59:01;;;;;;;;;;;6.20;99.90;;;;;;5067103;28;19924;-68
2022/09/21 06:01:35;;;;;;;;;;;6.20;99.90;;;;;;5064969;28;19928;-69
2022/09/21 06:04:02;;;;;;;;;;;6.30;99.90;;;;;;5069062;28;19924;-69
2022/09/21 06:06:29;;;;;;;;;;;6.30;99.90;;;;;;5077984;28;20058;-69
2022/09/21 06:08:56;;;;;;;;;;;6.40;99.90;;;;;;5069468;28;20010;-68
2022/09/21 06:11:23;;;;;;;;;;;6.50;99.90;;;;;;5069688;28;20367;-68
2022/09/21 06:13:50;;;;;;;;;;;6.60;99.90;;;;;;5078253;28;19924;-68
2022/09/21 06:16:18;;;;;;;;;;;6.60;99.90;;;;;;5069677;28;19924;-68
2022/09/21 06:18:45;;;;;;;;;;;6.70;99.90;;;;;;5077673;28;19924;-70
2022/09/21 06:21:12;;;;;;;;;;;6.80;99.90;;;;;;5069597;28;19925;-69
2022/09/21 06:23:38;;;;;;;;;;;6.80;99.90;;;;;;5076133;28;20342;-68
2022/09/21 06:26:05;;;;;;;;;;;6.90;99.90;;;;;;5076434;28;19924;-68
2022/09/21 06:28:32;;;;;;;;;;;7.00;99.90;;;;;;5068953;28;19924;-68
2022/09/21 06:30:59;;;;;;;;;;;7.10;99.90;;;;;;5069147;28;19935;-69
2022/09/21 06:33:27;;;;;;;;;;;7.20;99.90;;;;;;5069392;28;19924;-68
2022/09/21 06:35:54;;;;;;;;;;;7.20;99.90;;;;;;5065550;28;19929;-68
2022/09/21 06:38:21;;;;;;;;;;;7.40;99.90;;;;;;5068091;28;19924;-68
2022/09/21 06:40:48;;;;;;;;;;;7.40;99.90;;;;;;5069323;28;19931;-68
2022/09/21 06:43:14;;;;;;;;;;;7.50;99.90;;;;;;5069205;28;19929;-68
2022/09/21 06:45:42;;;;;;;;;;;7.60;99.90;;;;;;5082149;28;19955;-69
2022/09/21 06:48:08;;;;;;;;;;;7.70;99.90;;;;;;5068730;28;19931;-68
2022/09/21 06:50:37;;;;;;;;;;;7.80;99.90;;;;;;5071485;28;19950;-69
2022/09/21 06:53:04;;;;;;;;;;;7.90;99.90;;;;;;5077665;28;19935;-68
2022/09/21 06:55:32;;;;;;;;;;;8.00;99.90;;;;;;5069207;28;19924;-69
2022/09/21 06:58:02;;;;;;;;;;;8.10;99.90;;;;;;5077158;28;19956;-68
2022/09/21 07:00:29;;;;;;;;;;;8.20;99.90;;;;;;5079527;28;20391;-69
2022/09/21 07:02:56;;;;;;;;;;;8.40;99.90;;;;;;5069015;28;19931;-68
2022/09/21 07:05:22;;;;;;;;;;;8.70;99.90;;;;;;5066036;28;19933;-68
2022/09/21 07:07:51;;;;;;;;;;;8.90;99.90;;;;;;5085747;28;19928;-68
2022/09/21 07:10:17;;;;;;;;;;;9.10;99.90;;;;;;5077415;28;19933;-70
2022/09/21 07:12:44;;;;;;;;;;;9.30;99.90;;;;;;5085992;28;19928;-69
2022/09/21 07:15:12;;;;;;;;;;;9.50;99.90;;;;;;5075489;28;19928;-69
2022/09/21 07:17:39;;;;;;;;;;;9.60;99.90;;;;;;5072682;28;19925;-68
2022/09/21 07:20:08;;;;;;;;;;;9.80;99.90;;;;;;5077010;28;19928;-68
2022/09/21 07:22:36;;;;;;;;;;;9.90;99.90;;;;;;5079846;28;19928;-68
2022/09/21 07:25:04;;;;;;;;;;;10.00;99.90;;;;;;5069223;28;19932;-69
2022/09/21 07:27:32;;;;;;;;;;;10.10;99.90;;;;;;5076962;28;20391;-69
2022/09/21 07:29:59;;;;;;;;;;;10.20;99.90;;;;;;5069466;28;19932;-69
2022/09/21 07:32:26;;;;;;;;;;;10.20;99.90;;;;;;5068829;28;19924;-69
2022/09/21 07:34:55;;;;;;;;;;;10.40;99.90;;;;;;5066813;28;20434;-70
2022/09/21 07:37:23;;;;;;;;;;;10.60;99.90;;;;;;5068743;28;19925;-68
2022/09/21 07:39:50;;;;;;;;;;;10.70;99.90;;;;;;5068813;28;19924;-68
2022/09/21 07:42:20;;;;;;;;;;;10.80;99.90;;;;;;5069084;28;19959;-69
2022/09/21 07:44:47;;;;;;;;;;;10.90;99.90;;;;;;5067379;28;19932;-68
2022/09/21 07:47:13;;;;;;;;;;;11.00;99.90;;;;;;5085087;28;19974;-68
2022/09/21 07:49:41;;;;;;;;;;;11.10;99.90;;;;;;5076782;28;19925;-68
2022/09/21 07:52:08;;;;;;;;;;;11.20;99.90;;;;;;5072399;28;19928;-70
2022/09/21 07:54:35;;;;;;;;;;;11.30;99.90;;;;;;5080380;28;20027;-68
2022/09/21 07:59:48;;;;;;;;;;;11.50;99.90;;;;;;5072350;28;20480;-69
2022/09/21 08:02:15;;;;;;;;;;;11.50;99.90;;;;;;5079169;28;19931;-69
2022/09/21 08:04:42;;;;;;;;;;;11.60;99.90;;;;;;5073054;28;19928;-69
2022/09/21 08:07:08;;;;;;;;;;;11.70;99.90;;;;;;5071791;28;19928;-70
2022/09/21 08:09:35;;;;;;;;;;;11.80;99.90;;;;;;5071365;28;19924;-69
2022/09/21 08:12:02;;;;;;;;;;;11.90;99.90;;;;;;5071819;28;19932;-70
2022/09/21 08:14:29;;;;;;;;;;;12.00;99.90;;;;;;5071939;28;20480;-69
2022/09/21 08:16:57;;;;;;;;;;;12.10;99.90;;;;;;5080632;28;19924;-70
2022/09/21 08:19:25;;;;;;;;;;;12.10;99.90;;;;;;5081182;28;19939;-69
2022/09/21 08:21:52;;;;;;;;;;;12.20;99.90;;;;;;5067895;28;19935;-69
2022/09/21 08:24:19;;;;;;;;;;;12.30;99.90;;;;;;5071892;28;19924;-70
2022/09/21 08:26:46;;;;;;;;;;;12.30;99.90;;;;;;5071687;28;20351;-70
2022/09/21 08:29:13;;;;;;;;;;;12.40;99.90;;;;;;5071014;28;19929;-69
2022/09/21 08:31:40;;;;;;;;;;;12.50;99.90;;;;;;5071610;28;19924;-72
2022/09/21 08:34:08;;;;;;;;;;;12.60;99.90;;;;;;5073211;28;19973;-69
2022/09/21 08:36:35;;;;;;;;;;;12.60;99.90;;;;;;5071466;28;19924;-69
2022/09/21 08:39:02;;;;;;;;;;;12.80;99.90;;;;;;5070876;28;20329;-70
2022/09/21 08:41:45;;;;;;;;;;;12.80;99.90;;;;;;5071301;28;19936;-70
2022/09/21 08:44:13;;;;;;;;;;;12.90;99.90;;;;;;5071598;28;19935;-70
2022/09/21 08:46:41;;;;;;;;;;;13.00;99.90;;;;;;5070428;28;19940;-70
2022/09/21 08:49:13;;;;;;;;;;;13.00;99.90;;;;;;5070881;28;19924;-70
2022/09/21 08:51:44;;;;;;;;;;;13.10;99.90;;;;;;5079682;28;19931;-70
2022/09/21 08:54:15;;;;;;;;;;;13.10;99.90;;;;;;5073648;28;19928;-70
2022/09/21 08:56:41;;;;;;;;;;;13.10;99.90;;;;;;5070911;28;19956;-70
2022/09/21 08:59:11;;;;;;;;;;;13.20;99.90;;;;;;5070855;28;19928;-70
2022/09/21 09:01:43;;;;;;;;;;;13.30;99.90;;;;;;5079370;28;19928;-71
2022/09/21 09:04:22;;;;;;;;;;;13.40;99.90;;;;;;5084557;28;20376;-70
2022/09/21 09:06:52;;;;;;;;;;;13.50;99.90;;;;;;5070810;28;19925;-70
2022/09/21 09:09:23;;;;;;;;;;;13.60;99.90;;;;;;5070335;28;19924;-69
2022/09/21 09:11:56;;;;;;;;;;;13.80;99.90;;;;;;5076614;28;19924;-69
2022/09/21 09:14:31;;;;;;;;;;;13.90;99.90;;;;;;5066752;28;19933;-69
2022/09/21 09:17:05;;;;;;;;;;;14.00;99.90;;;;;;5064992;28;19924;-69
2022/09/21 09:19:37;;;;;;;;;;;14.10;99.90;;;;;;5067776;28;19928;-69
2022/09/21 09:22:06;;;;;;;;;;;14.00;99.90;;;;;;5079023;28;19925;-69
2022/09/21 09:24:35;;;;;;;;;;;14.00;99.90;;;;;;5068880;28;19925;-69
2022/09/21 09:27:05;;;;;;;;;;;14.10;99.90;;;;;;5077354;28;19925;-69
2022/09/21 09:29:35;;;;;;;;;;;14.10;99.90;;;;;;5067477;28;19928;-69
2022/09/21 09:32:03;;;;;;;;;;;14.20;99.90;;;;;;5078065;28;19928;-69
2022/09/21 09:34:32;;;;;;;;;;;14.30;99.90;;;;;;5077178;28;19965;-70
2022/09/21 09:37:05;;;;;;;;;;;14.30;99.90;;;;;;5069015;28;19928;-69
2022/09/21 09:39:32;;;;;;;;;;;14.40;99.90;;;;;;5069489;28;19936;-68
2022/09/21 09:42:08;;;;;;;;;;;14.40;99.90;;;;;;5077992;28;19925;-69
2022/09/21 09:44:42;;;;;;;;;;;14.60;99.90;;;;;;5081093;28;19928;-70
2022/09/21 09:47:11;;;;;;;;;;;14.80;99.90;;;;;;5072387;28;19925;-70
2022/09/21 09:49:43;;;;;;;;;;;14.90;99.90;;;;;;5072926;28;19925;-69
2022/09/21 09:52:13;;;;;;;;;;;15.00;99.90;;;;;;5080661;28;19931;-69
2022/09/21 09:54:40;;;;;;;;;;;15.20;99.90;;;;;;5070133;28;20288;-69
2022/09/21 09:57:07;;;;;;;;;;;15.30;99.90;;;;;;5078738;28;19931;-69
2022/09/21 09:59:35;;;;;;;;;;;15.30;99.90;;;;;;5069761;28;20330;-69
2022/09/21 10:02:04;;;;;;;;;;;15.30;99.90;;;;;;5070315;28;19924;-69
2022/09/21 10:04:31;;;;;;;;;;;15.40;99.90;;;;;;5070064;28;19924;-69
2022/09/21 10:06:57;;;;;;;;;;;15.50;99.90;;;;;;5070219;28;19924;-69
2022/09/21 10:09:27;;;;;;;;;;;15.60;99.90;;;;;;5076806;28;19924;-70
2022/09/21 10:11:56;;;;;;;;;;;15.70;99.90;;;;;;5065545;28;19932;-69
2022/09/21 10:14:24;;;;;;;;;;;15.90;99.90;;;;;;5078188;28;19929;-70
2022/09/21 10:16:52;;;;;;;;;;;16.10;99.90;;;;;;5070053;28;19943;-69
2022/09/21 10:19:21;;;;;;;;;;;16.10;99.90;;;;;;5071768;28;19931;-69
2022/09/21 10:21:48;;;;;;;;;;;16.30;99.90;;;;;;5070016;28;19938;-69
2022/09/21 10:24:18;;;;;;;;;;;16.50;99.90;;;;;;5069832;28;19924;-70
2022/09/21 10:26:48;;;;;;;;;;;16.70;99.90;;;;;;5069158;28;20333;-70
2022/09/21 10:29:19;;;;;;;;;;;16.90;99.90;;;;;;5068999;28;20357;-70
2022/09/21 10:31:53;;;;;;;;;;;16.90;99.90;;;;;;5069672;28;20391;-70
2022/09/21 10:34:20;;;;;;;;;;;17.10;99.90;;;;;;5069447;28;19928;-70
2022/09/21 10:36:50;;;;;;;;;;;17.10;99.90;;;;;;5076824;28;19936;-70
2022/09/21 10:39:20;;;;;;;;;;;17.30;99.90;;;;;;5068663;28;20019;-69
2022/09/21 10:41:50;;;;;;;;;;;17.50;99.90;;;;;;5074531;28;19933;-69
2022/09/21 10:44:17;;;;;;;;;;;17.50;99.90;;;;;;5069793;28;19925;-69
2022/09/21 10:46:44;;;;;;;;;;;17.80;99.90;;;;;;5069160;28;19925;-68
2022/09/21 10:49:16;;;;;;;;;;;17.90;99.90;;;;;;5068755;28;19924;-69
2022/09/21 10:51:45;;;;;;;;;;;17.90;99.90;;;;;;5069036;28;19931;-68
2022/09/21 10:54:15;;;;;;;;;;;18.00;99.90;;;;;;5069441;28;20437;-69
2022/09/21 10:56:51;;;;;;;;;;;18.10;99.90;;;;;;5069572;28;19924;-70
2022/09/21 10:59:23;;;;;;;;;;;18.30;99.90;;;;;;5068339;28;19974;-69
2022/09/21 11:01:51;;;;;;;;;;;18.50;99.90;;;;;;5069141;28;19931;-70
2022/09/21 11:04:22;;;;;;;;;;;18.90;99.90;;;;;;5068902;28;19932;-69
2022/09/21 11:06:51;;;;;;;;;;;18.80;99.90;;;;;;5069296;28;19931;-70
2022/09/21 11:09:19;;;;;;;;;;;18.90;99.90;;;;;;5068540;28;19924;-69
2022/09/21 11:11:50;;;;;;;;;;;19.10;99.90;;;;;;5074903;28;20352;-69
2022/09/21 11:14:24;;;;;;;;;;;19.30;99.90;;;;;;5068853;28;19924;-70
2022/09/21 11:16:54;;;;;;;;;;;19.70;99.90;;;;;;5068974;28;19946;-69
2022/09/21 11:19:25;;;;;;;;;;;21.30;99.90;;;;;;5076652;28;19924;-70
2022/09/21 11:21:55;;;;;;;;;;;26.40;99.90;;;;;;5069173;28;20015;-69
2022/09/21 11:24:26;;;;;;;;;;;28.80;99.90;;;;;;5077341;28;20031;-68
2022/09/21 11:26:56;;;;;;;;;;;31.30;99.90;;;;;;5068977;28;19929;-68
2022/09/21 11:29:23;;;;;;;;;;;;;;;;;;5080545;28;19928;-69
2022/09/21 11:31:51;;;;;;;;;;;;;;;;;;5073042;28;19924;-70
2022/09/21 11:34:37;;;;;;;;;;;34.90;99.90;;;;;;5068813;28;20426;-70
2022/09/21 11:37:10;;;;;;;;;;;35.70;99.90;;;;;;5089410;28;19925;-71
2022/09/21 11:39:43;;;;;;;;;;;36.90;99.90;;;;;;5078401;28;19925;-70
2022/09/21 11:42:19;;;;;;;;;;;37.00;99.90;;;;;;5072966;28;19925;-71
2022/09/21 11:44:51;;;;;;;;;;;37.80;99.90;;;;;;5081063;28;20403;-68
2022/09/21 11:47:24;;;;;;;;;;;38.70;99.90;;;;;;5072769;28;19924;-72
2022/09/21 11:50:03;;;;;;;;;;;36.30;99.90;;;;;;5072500;28;19999;-70
2022/09/21 11:52:39;;;;;;;;;;;35.90;99.90;;;;;;5069932;28;20295;-68
2022/09/21 11:55:16;;;;;;;;;;;31.00;99.90;;;;;;5081442;28;19931;-69
2022/09/21 11:57:47;;;;;;;;;;;28.10;99.90;;;;;;5071228;28;19928;-69
2022/09/21 12:00:16;;;;;;;;;;;27.00;99.90;;;;;;5072175;28;20334;-69
2022/09/21 12:02:58;;;;;;;;;;;30.20;99.90;;;;;;5072507;28;19928;-70
2022/09/21 12:05:30;;;;;;;;;;;33.00;99.90;;;;;;5067404;28;19932;-70
2022/09/21 12:08:04;;;;;;;;;;;34.10;99.90;;;;;;5068605;28;19925;-70
2022/09/21 12:10:38;;;;;;;;;;;35.30;99.90;;;;;;5082561;28;20329;-68
2022/09/21 12:13:08;;;;;;;;;;;36.90;99.90;;;;;;5072061;28;19924;-70
2022/09/21 12:15:39;;;;;;;;;;;35.20;99.80;;;;;;5078507;28;19924;-70
2022/09/21 12:18:08;;;;;;;;;;;35.70;99.00;;;;;;5072139;28;19931;-70
2022/09/21 12:20:42;;;;;;;;;;;35.50;99.90;;;;;;5080147;28;20341;-70
2022/09/21 12:23:13;;;;;;;;;;;37.30;98.80;;;;;;5087148;28;19932;-70
2022/09/21 12:25:41;;;;;;;;;;;37.00;99.90;;;;;;5084869;28;19924;-70
2022/09/21 12:28:12;;;;;;;;;;;36.00;99.90;;;;;;5082248;28;19931;-70
2022/09/21 12:30:41;;;;;;;;;;;34.60;99.90;;;;;;5081540;28;19924;-70
2022/09/21 12:33:13;;;;;;;;;;;34.40;99.90;;;;;;5072025;28;19931;-70
2022/09/21 12:35:43;;;;;;;;;;;33.50;99.90;;;;;;5070097;28;19924;-73
2022/09/21 12:38:13;;;;;;;;;;;30.40;99.90;;;;;;5069815;28;19924;-65
2022/09/21 12:40:42;;;;;;;;;;;28.20;99.90;;;;;;5066877;28;19924;-66
2022/09/21 12:43:16;;;;;;;;;;;28.70;99.90;;;;;;5064084;28;20479;-65
2022/09/21 12:45:46;;;;;;;;;;;31.30;99.90;;;;;;5069263;28;19929;-65
2022/09/21 12:48:18;;;;;;;;;;;31.60;99.90;;;;;;5086998;28;19925;-66
2022/09/21 12:50:48;;;;;;;;;;;31.00;99.90;;;;;;5082988;28;20387;-65
2022/09/21 12:53:17;;;;;;;;;;;28.90;99.90;;;;;;5070994;28;19983;-66
2022/09/21 12:55:49;;;;;;;;;;;27.50;99.90;;;;;;5069997;28;20300;-66
2022/09/21 12:58:23;;;;;;;;;;;27.80;99.90;;;;;;5070526;28;20311;-65
2022/09/21 13:01:08;;;;;;;;;;;26.00;99.90;;;;;;5081502;28;19932;-65
2022/09/21 13:03:40;;;;;;;;;;;24.80;99.90;;;;;;5068592;28;19930;-65
2022/09/21 13:06:21;;;;;;;;;;;23.50;99.90;;;;;;5086344;28;19924;-65
2022/09/21 13:08:48;;;;;;;;;;;22.70;99.90;;;;;;5070096;28;19972;-67
2022/09/21 13:11:20;;;;;;;;;;;22.10;99.90;;;;;;5065143;28;19939;-65
2022/09/21 13:13:50;;;;;;;;;;;22.00;99.90;;;;;;5086503;28;19942;-65
2022/09/21 13:16:24;;;;;;;;;;;21.90;99.90;;;;;;5074193;28;20392;-71
2022/09/21 13:18:54;;;;;;;;;;;21.90;99.90;;;;;;5080867;28;19925;-64
2022/09/21 13:21:25;;;;;;;;;;;21.20;99.90;;;;;;5069897;28;19924;-65
2022/09/21 13:23:55;;;;;;;;;;;20.80;99.90;;;;;;5086756;28;20315;-65
2022/09/21 13:26:30;;;;;;;;;;;20.70;99.90;;;;;;5063743;28;19928;-65
2022/09/21 13:29:15;;;;;;;;;;;20.50;99.90;;;;;;5084011;28;19928;-66
2022/09/21 13:31:51;;;;;;;;;;;20.30;99.90;;;;;;5069440;28;19924;-65
2022/09/21 13:34:23;;;;;;;;;;;20.30;99.90;;;;;;5086529;28;19924;-65
2022/09/21 13:37:05;;;;;;;;;;;20.10;99.90;;;;;;5069472;28;19928;-64
2022/09/21 13:39:33;;;;;;;;;;;19.90;99.90;;;;;;5053986;28;19924;-64
2022/09/21 13:42:20;;;;;;;;;;;20.00;99.90;;;;;;5078966;28;19928;-65
2022/09/21 13:44:47;;;;;;;;;;;20.10;99.90;;;;;;5082719;28;19932;-64
2022/09/21 13:47:14;;;;;;;;;;;20.20;99.90;;;;;;5066655;28;19990;-65
2022/09/21 13:49:46;;;;;;;;;;;20.70;99.90;;;;;;5069512;28;20395;-65
2022/09/21 13:52:25;;;;;;;;;;;21.70;99.90;;;;;;5075249;28;20007;-65
2022/09/21 13:54:54;;;;;;;;;;;22.50;99.90;;;;;;5086755;28;19974;-64
2022/09/21 13:57:24;;;;;;;;;;;22.50;99.90;;;;;;5069117;28;20066;-66
2022/09/21 14:00:01;;;;;;;;;;;22.50;99.90;;;;;;5068784;28;20011;-71
2022/09/21 14:02:31;;;;;;;;;;;23.60;99.90;;;;;;5068237;28;19935;-77
2022/09/21 14:05:02;;;;;;;;;;;24.70;99.90;;;;;;5086469;28;19978;-67
2022/09/21 14:07:29;;;;;;;;;;;24.50;99.90;;;;;;5086094;28;20023;-69
2022/09/21 14:09:59;;;;;;;;;;;25.00;99.90;;;;;;5076245;28;20012;-68
2022/09/21 14:12:28;;;;;;;;;;;26.30;99.90;;;;;;5063703;28;20308;-70
2022/09/21 14:15:13;;;;;;;;;;;27.90;99.90;;;;;;5068635;28;19936;-69
2022/09/21 14:17:40;;;;;;;;;;;29.70;99.90;;;;;;5064701;28;19974;-70
2022/09/21 14:20:22;;;;;;;;;;;30.20;99.90;;;;;;5086101;28;19924;-69
2022/09/21 14:22:48;;;;;;;;;;;30.30;99.90;;;;;;5065322;28;19929;-69
2022/09/21 14:25:24;;;;;;;;;;;30.30;99.90;;;;;;5069521;28;19931;-69
2022/09/21 14:27:51;;;;;;;;;;;30.80;99.90;;;;;;5068827;28;19925;-69
2022/09/21 14:30:20;;;;;;;;;;;31.50;99.50;;;;;;5066193;28;19936;-69
2022/09/21 14:32:50;;;;;;;;;;;31.40;99.00;;;;;;5085792;28;19928;-71
2022/09/21 14:35:18;;;;;;;;;;;31.20;99.10;;;;;;5067285;28;20027;-70
2022/09/21 14:37:46;;;;;;;;;;;31.00;99.40;;;;;;5085760;28;19925;-69
2022/09/21 14:40:20;;;;;;;;;;;31.00;98.50;;;;;;5065907;28;19924;-69
2022/09/21 14:42:48;;;;;;;;;;;31.70;99.20;;;;;;5085949;28;20328;-70